createdAt,value
2023-03-26T00:03:03.303Z,41.27
2023-03-26T00:06:07.685Z,40.90
2023-03-26T00:09:13.630Z,41.18
2023-03-26T00:12:16.516Z,41.17
2023-03-26T00:15:20.768Z,41.03
2023-03-26T00:18:24.955Z,41.10
2023-03-26T00:21:30.414Z,41.31
2023-03-26T00:24:33.224Z,41.12
2023-03-26T00:27:36.028Z,41.35
2023-03-26T00:30:44.545Z,40.80
2023-03-26T00:33:55.563Z,41.17
2023-03-26T00:37:02.485Z,40.99
2023-03-26T00:40:11.121Z,41.00
2023-03-26T00:43:19.645Z,41.20
2023-03-26T00:46:24.138Z,41.17
2023-03-26T00:49:27.581Z,41.09
2023-03-26T00:52:30.373Z,41.35
2023-03-26T00:55:33.152Z,41.56
2023-03-26T00:58:37.206Z,41.51
2023-03-26T01:01:41.500Z,41.35
2023-03-26T01:04:50.900Z,41.47
2023-03-26T01:07:53.776Z,41.27
2023-03-26T01:11:03.981Z,41.16
2023-03-26T01:14:08.231Z,41.43
2023-03-26T01:17:14.117Z,41.27
2023-03-26T01:20:21.268Z,41.30
2023-03-26T01:23:26.350Z,41.41
2023-03-26T01:26:44.005Z,41.26
2023-03-26T01:29:52.901Z,41.24
2023-03-26T01:32:59.822Z,41.34
2023-03-26T01:36:06.647Z,41.44
2023-03-26T01:39:12.365Z,41.45
2023-03-26T01:42:17.472Z,41.25
2023-03-26T01:45:23.350Z,41.13
2023-03-26T01:48:30.745Z,40.92
2023-03-26T01:51:34.616Z,40.99
2023-03-26T01:54:37.377Z,40.98
2023-03-26T01:57:48.587Z,41.19
2023-03-26T02:00:56.836Z,41.11
2023-03-26T02:04:03.554Z,41.39
2023-03-26T02:07:09.387Z,41.05
2023-03-26T02:10:13.632Z,41.28
2023-03-26T02:13:16.929Z,41.44
2023-03-26T02:16:21.293Z,41.38
2023-03-26T02:19:26.774Z,41.29
2023-03-26T02:22:35.511Z,41.60
2023-03-26T02:25:42.264Z,41.37
2023-03-26T02:28:45.366Z,41.30
2023-03-26T02:31:50.085Z,41.39
2023-03-26T02:34:52.914Z,41.35
2023-03-26T02:37:55.712Z,41.47
2023-03-26T02:40:58.467Z,41.61
2023-03-26T02:44:01.271Z,41.60
2023-03-26T02:47:05.458Z,41.36
2023-03-26T02:50:09.066Z,41.60
2023-03-26T02:53:12.054Z,41.39
2023-03-26T02:56:14.789Z,41.62
2023-03-26T02:59:17.573Z,41.56
2023-03-26T03:02:24.399Z,41.40
2023-03-26T03:05:27.277Z,41.48
2023-03-26T03:08:34.151Z,41.32
2023-03-26T03:11:37.136Z,41.34
2023-03-26T03:14:40.898Z,41.17
2023-03-26T03:17:45.166Z,41.00
2023-03-26T03:20:47.941Z,41.21
2023-03-26T03:23:52.049Z,41.30
2023-03-26T03:26:56.914Z,41.03
2023-03-26T03:29:59.664Z,41.24
2023-03-26T03:33:03.946Z,41.17
2023-03-26T03:36:10.569Z,41.04
2023-03-26T03:39:23.949Z,41.06
2023-03-26T03:42:28.473Z,41.04
2023-03-26T03:45:31.234Z,41.14
2023-03-26T03:48:38.222Z,40.91
2023-03-26T03:51:42.937Z,40.92
2023-03-26T03:54:47.488Z,41.01
2023-03-26T03:57:51.550Z,41.02
2023-03-26T04:01:00.838Z,40.93
2023-03-26T04:04:05.615Z,40.93
2023-03-26T04:07:08.555Z,40.91
2023-03-26T04:10:11.715Z,40.78
2023-03-26T04:13:15.486Z,41.15
2023-03-26T04:16:23.349Z,40.98
2023-03-26T04:19:28.726Z,41.02
2023-03-26T04:22:34.767Z,40.88
2023-03-26T04:25:39.810Z,40.85
2023-03-26T04:28:46.360Z,41.03
2023-03-26T04:31:50.499Z,40.88
2023-03-26T04:34:56.011Z,40.94
2023-03-26T04:37:58.730Z,41.05
2023-03-26T04:41:04.545Z,41.01
2023-03-26T04:44:08.675Z,40.83
2023-03-26T04:47:11.420Z,40.82
2023-03-26T04:50:18.104Z,40.80
2023-03-26T04:53:25.511Z,40.89
2023-03-26T04:56:39.312Z,40.79
2023-03-26T04:59:43.152Z,40.69
2023-03-26T05:02:45.988Z,40.80
2023-03-26T05:05:59.532Z,40.64
2023-03-26T05:09:03.318Z,40.68
2023-03-26T05:12:08.873Z,40.94
2023-03-26T05:15:12.515Z,40.89
2023-03-26T05:18:16.369Z,40.93
2023-03-26T05:21:20.822Z,40.72
2023-03-26T05:24:26.151Z,40.79
2023-03-26T05:27:28.852Z,40.97
2023-03-26T05:30:33.528Z,40.56
2023-03-26T05:33:36.648Z,40.71
2023-03-26T05:36:40.918Z,40.66
2023-03-26T05:39:43.968Z,40.74
2023-03-26T05:42:46.908Z,40.94
2023-03-26T05:45:51.748Z,40.74
2023-03-26T05:48:54.764Z,40.82
2023-03-26T05:51:59.936Z,40.61
2023-03-26T05:55:08.047Z,40.56
2023-03-26T05:58:10.805Z,40.85
2023-03-26T06:01:16.908Z,40.53
2023-03-26T06:04:19.981Z,40.72
2023-03-26T06:07:28.293Z,40.43
2023-03-26T06:10:36.262Z,40.55
2023-03-26T06:13:41.571Z,40.78
2023-03-26T06:16:44.331Z,40.59
2023-03-26T06:19:47.954Z,40.67
2023-03-26T06:22:52.085Z,40.62
2023-03-26T06:25:54.980Z,40.59
2023-03-26T06:28:57.715Z,40.61
2023-03-26T06:32:18.324Z,40.55
2023-03-26T06:35:31.917Z,40.56
2023-03-26T06:38:36.197Z,40.77
2023-03-26T06:41:44.554Z,40.54
2023-03-26T06:44:48.341Z,40.51
2023-03-26T06:47:52.704Z,40.77
2023-03-26T06:50:55.886Z,40.63
2023-03-26T06:54:00.171Z,40.53
2023-03-26T06:57:02.981Z,40.56
2023-03-26T07:00:09.219Z,40.67
2023-03-26T07:03:12.376Z,40.61
2023-03-26T07:06:15.204Z,40.50
2023-03-26T07:09:37.935Z,40.69
2023-03-26T07:12:42.967Z,40.72
2023-03-26T07:15:46.677Z,40.43
2023-03-26T07:18:52.177Z,40.70
2023-03-26T07:21:55.417Z,40.41
2023-03-26T07:25:00.048Z,40.55
2023-03-26T07:28:06.774Z,40.53
2023-03-26T07:31:16.963Z,40.43
2023-03-26T07:34:33.095Z,40.42
2023-03-26T07:37:46.302Z,40.49
2023-03-26T07:40:54.480Z,40.39
2023-03-26T07:44:10.473Z,40.60
2023-03-26T07:47:19.857Z,40.62
2023-03-26T07:50:24.808Z,40.45
2023-03-26T07:53:27.737Z,40.43
2023-03-26T07:56:34.769Z,40.59
2023-03-26T07:59:39.570Z,40.59
2023-03-26T08:02:58.968Z,40.63
2023-03-26T08:06:10.135Z,40.67
2023-03-26T08:09:17.642Z,40.43
2023-03-26T08:12:31.493Z,40.53
2023-03-26T08:15:39.289Z,40.32
2023-03-26T08:18:48.794Z,40.34
2023-03-26T08:21:54.254Z,40.40
2023-03-26T08:25:05.400Z,40.29
2023-03-26T08:28:17.879Z,40.51
2023-03-26T08:31:25.256Z,40.40
2023-03-26T08:34:29.223Z,40.30
2023-03-26T08:37:32.049Z,40.27
2023-03-26T08:41:02.968Z,40.21
2023-03-26T08:44:18.002Z,40.54
2023-03-26T08:47:38.711Z,40.43
2023-03-26T08:50:56.562Z,40.61
2023-03-26T08:54:18.242Z,40.37
2023-03-26T08:57:39.638Z,40.39
2023-03-26T09:01:05.498Z,40.42
2023-03-26T09:04:41.330Z,40.68
2023-03-26T09:07:53.027Z,40.76
2023-03-26T09:11:28.763Z,40.44
2023-03-26T09:14:40.758Z,40.42
2023-03-26T09:18:01.439Z,40.50
2023-03-26T09:21:13.517Z,40.32
2023-03-26T09:24:34.680Z,40.33
2023-03-26T09:27:38.945Z,40.66
2023-03-26T09:30:57.810Z,40.38
2023-03-26T09:34:13.938Z,40.59
2023-03-26T09:37:23.832Z,40.42
2023-03-26T09:40:39.033Z,40.35
2023-03-26T09:44:05.617Z,40.43
2023-03-26T09:47:23.196Z,40.53
2023-03-26T09:50:34.675Z,40.34
2023-03-26T09:53:52.252Z,40.12
2023-03-26T09:56:58.821Z,40.86
2023-03-26T10:00:23.622Z,40.79
2023-03-26T10:03:30.521Z,40.74
2023-03-26T10:06:48.185Z,40.53
2023-03-26T10:09:55.771Z,40.36
2023-03-26T10:13:13.602Z,40.01
2023-03-26T10:16:22.629Z,40.54
2023-03-26T10:19:34.617Z,40.74
2023-03-26T10:22:44.935Z,40.48
2023-03-26T10:26:04.401Z,40.30
2023-03-26T10:29:22.630Z,40.39
2023-03-26T10:32:30.541Z,40.42
2023-03-26T10:35:40.974Z,40.92
2023-03-26T10:38:54.785Z,40.97
2023-03-26T10:42:04.164Z,40.91
2023-03-26T10:45:20.008Z,40.89
2023-03-26T10:48:29.318Z,40.84
2023-03-26T10:51:44.241Z,40.57
2023-03-26T10:54:51.234Z,40.84
2023-03-26T10:57:58.156Z,40.52
2023-03-26T11:01:04.727Z,40.82
2023-03-26T11:04:17.829Z,40.62
2023-03-26T11:07:22.496Z,41.36
2023-03-26T11:10:40.963Z,41.03
2023-03-26T11:13:50.217Z,41.51
2023-03-26T11:16:59.345Z,41.28
2023-03-26T11:20:06.298Z,41.88
2023-03-26T11:23:36.561Z,41.51
2023-03-26T11:26:46.047Z,41.84
2023-03-26T11:29:52.906Z,41.82
2023-03-26T11:33:00.771Z,41.76
2023-03-26T11:36:07.743Z,41.37
2023-03-26T11:39:14.984Z,41.96
2023-03-26T11:42:29.948Z,41.73
2023-03-26T11:45:34.140Z,41.48
2023-03-26T11:48:38.265Z,41.49
2023-03-26T11:51:43.270Z,41.41
2023-03-26T11:54:48.539Z,41.29
2023-03-26T11:57:54.836Z,41.49
2023-03-26T12:00:57.951Z,41.27
2023-03-26T12:04:05.244Z,41.06
2023-03-26T12:07:10.900Z,41.28
2023-03-26T12:10:23.123Z,40.99
2023-03-26T12:13:30.505Z,41.65
2023-03-26T12:16:37.220Z,41.59
2023-03-26T12:19:43.817Z,41.71
2023-03-26T12:22:48.470Z,41.71
2023-03-26T12:26:05.490Z,41.33
2023-03-26T12:29:11.480Z,41.30
2023-03-26T12:32:16.283Z,41.36
2023-03-26T12:35:20.205Z,41.13
2023-03-26T12:38:24.227Z,41.44
2023-03-26T12:42:52.741Z,41.36
2023-03-26T12:45:00.515Z,41.00
2023-03-26T12:48:04.541Z,41.25
2023-03-26T12:51:12.557Z,40.99
2023-03-26T12:54:23.898Z,40.99
2023-03-26T12:57:30.868Z,41.05
2023-03-26T13:00:43.448Z,40.98
2023-03-26T13:03:57.940Z,41.02
2023-03-26T13:07:07.912Z,41.04
2023-03-26T13:10:34.538Z,40.92
2023-03-26T13:13:52.865Z,41.11
2023-03-26T13:17:01.088Z,40.96
2023-03-26T13:20:12.499Z,40.74
2023-03-26T13:23:21.857Z,40.87
2023-03-26T13:26:31.445Z,40.91
2023-03-26T13:29:39.653Z,40.92
2023-03-26T13:32:49.228Z,40.84
2023-03-26T13:36:10.270Z,40.89
2023-03-26T13:39:26.286Z,40.54
2023-03-26T13:42:40.680Z,40.67
2023-03-26T13:45:47.962Z,40.69
2023-03-26T13:48:55.416Z,40.66
2023-03-26T13:51:59.894Z,40.59
2023-03-26T13:55:07.447Z,40.55
2023-03-26T13:58:16.115Z,40.49
2023-03-26T14:01:24.221Z,40.45
2023-03-26T14:04:32.637Z,40.49
2023-03-26T14:07:42.817Z,40.62
2023-03-26T14:10:50.504Z,41.09
2023-03-26T14:13:57.580Z,41.23
2023-03-26T14:17:04.232Z,40.95
2023-03-26T14:20:26.194Z,41.02
2023-03-26T14:23:58.834Z,41.07
2023-03-26T14:27:20.664Z,40.91
2023-03-26T14:30:50.467Z,40.91
2023-03-26T14:34:07.245Z,40.92
2023-03-26T14:37:28.047Z,41.01
2023-03-26T14:40:39.645Z,40.93
2023-03-26T14:43:50.513Z,40.74
2023-03-26T14:47:04.679Z,41.82
2023-03-26T14:50:26.703Z,41.48
2023-03-26T14:53:33.530Z,41.55
2023-03-26T14:56:50.821Z,41.18
2023-03-26T15:00:14.446Z,41.32
2023-03-26T15:03:42.367Z,41.43
2023-03-26T15:07:04.089Z,41.13
2023-03-26T15:10:18.709Z,41.08
2023-03-26T15:13:43.094Z,40.98
2023-03-26T15:17:09.562Z,40.93
2023-03-26T15:20:37.513Z,41.20
2023-03-26T15:24:08.440Z,40.94
2023-03-26T15:27:24.726Z,40.88
2023-03-26T15:30:45.404Z,40.91
2023-03-26T15:34:08.064Z,41.08
2023-03-26T15:37:33.571Z,40.86
2023-03-26T15:40:40.470Z,40.67
2023-03-26T15:44:23.956Z,40.96
2023-03-26T15:47:37.627Z,41.02
2023-03-26T15:50:54.048Z,40.97
2023-03-26T15:54:08.750Z,40.78
2023-03-26T15:57:21.376Z,41.12
2023-03-26T16:00:26.593Z,40.86
2023-03-26T16:03:37.172Z,41.18
2023-03-26T16:06:48.264Z,40.96
2023-03-26T16:09:59.980Z,41.16
2023-03-26T16:13:17.647Z,40.85
2023-03-26T16:16:24.651Z,41.11
2023-03-26T16:19:36.311Z,41.35
2023-03-26T16:22:55.007Z,41.06
2023-03-26T16:26:12.375Z,41.17
2023-03-26T16:29:26.373Z,41.23
2023-03-26T16:32:30.384Z,41.51
2023-03-26T16:35:56.158Z,41.45
2023-03-26T16:39:13.425Z,41.69
2023-03-26T16:42:31.427Z,41.55
2023-03-26T16:45:35.650Z,41.22
2023-03-26T16:48:41.582Z,41.77
2023-03-26T16:51:54.694Z,41.66
2023-03-26T16:55:06.546Z,41.47
2023-03-26T16:58:15.041Z,41.72
2023-03-26T17:01:23.112Z,41.52
2023-03-26T17:04:29.070Z,41.34
2023-03-26T17:07:38.382Z,41.39
2023-03-26T17:10:48.491Z,41.47
2023-03-26T17:14:01.132Z,41.51
2023-03-26T17:17:10.881Z,41.40
2023-03-26T17:20:21.139Z,41.26
2023-03-26T17:23:40.188Z,41.36
2023-03-26T17:26:48.609Z,41.47
2023-03-26T17:30:06.538Z,41.18
2023-03-26T17:33:14.563Z,41.58
2023-03-26T17:36:32.500Z,41.44
2023-03-26T17:40:14.772Z,41.34
2023-03-26T17:43:51.160Z,41.14
2023-03-26T17:46:57.495Z,41.31
2023-03-26T17:50:01.627Z,41.61
2023-03-26T17:53:14.597Z,41.02
2023-03-26T17:56:19.374Z,41.58
2023-03-26T17:59:24.265Z,41.59
2023-03-26T18:02:35.539Z,41.46
2023-03-26T18:05:42.898Z,41.38
2023-03-26T18:08:57.923Z,41.85
2023-03-26T18:12:06.591Z,42.42
2023-03-26T18:15:17.056Z,42.19
2023-03-26T18:18:23.765Z,42.12
2023-03-26T18:21:29.412Z,42.35
2023-03-26T18:24:38.044Z,42.20
2023-03-26T18:27:41.903Z,42.03
2023-03-26T18:30:47.305Z,42.01
2023-03-26T18:33:55.807Z,41.87
2023-03-26T18:37:14.862Z,41.77
2023-03-26T18:40:19.365Z,41.68
2023-03-26T18:43:34.488Z,41.86
2023-03-26T18:46:37.869Z,41.53
2023-03-26T18:49:42.989Z,41.69
2023-03-26T18:52:47.565Z,41.37
2023-03-26T18:55:53.117Z,41.53
2023-03-26T18:59:00.122Z,41.46
2023-03-26T19:02:05.329Z,41.63
2023-03-26T19:05:13.864Z,41.43
2023-03-26T19:08:17.635Z,41.38
2023-03-26T19:11:24.460Z,41.43
2023-03-26T19:14:28.687Z,41.44
2023-03-26T19:17:34.436Z,41.61
2023-03-26T19:20:40.978Z,41.40
2023-03-26T19:23:46.759Z,41.44
2023-03-26T19:26:49.760Z,41.37
2023-03-26T19:29:52.562Z,41.20
2023-03-26T19:32:55.805Z,41.23
2023-03-26T19:36:21.218Z,41.37
2023-03-26T19:39:36.513Z,41.18
2023-03-26T19:42:43.708Z,41.15
2023-03-26T19:46:04.952Z,41.31
2023-03-26T19:49:27.288Z,41.06
2023-03-26T19:52:36.563Z,40.92
2023-03-26T19:55:40.653Z,41.37
2023-03-26T19:58:45.950Z,41.52
2023-03-26T20:01:49.250Z,41.65
2023-03-26T20:04:52.078Z,41.62
2023-03-26T20:07:57.469Z,41.32
2023-03-26T20:11:00.339Z,41.61
2023-03-26T20:14:04.952Z,41.39
2023-03-26T20:17:11.989Z,41.55
2023-03-26T20:20:15.857Z,41.51
2023-03-26T20:23:19.996Z,41.53
2023-03-26T20:26:23.514Z,41.44
2023-03-26T20:29:28.365Z,41.66
2023-03-26T20:32:33.007Z,41.30
2023-03-26T20:35:36.931Z,41.44
2023-03-26T20:38:41.173Z,41.43
2023-03-26T20:41:48.470Z,41.22
2023-03-26T20:44:51.329Z,41.14
2023-03-26T20:47:54.354Z,41.41
2023-03-26T20:51:01.820Z,41.21
2023-03-26T20:54:07.875Z,41.00
2023-03-26T20:57:11.884Z,41.18
2023-03-26T21:00:18.615Z,41.40
2023-03-26T21:03:21.391Z,41.49
2023-03-26T21:06:24.161Z,41.47
2023-03-26T21:09:35.596Z,41.70
2023-03-26T21:12:42.271Z,41.59
2023-03-26T21:15:45.304Z,41.47
2023-03-26T21:18:49.373Z,41.67
2023-03-26T21:22:01.585Z,41.43
2023-03-26T21:25:11.845Z,41.50
2023-03-26T21:28:31.938Z,41.63
2023-03-26T21:31:39.101Z,41.54
2023-03-26T21:34:55.689Z,41.68
2023-03-26T21:38:01.588Z,41.82
2023-03-26T21:41:06.201Z,41.53
2023-03-26T21:44:09.422Z,41.30
2023-03-26T21:47:12.522Z,41.56
2023-03-26T21:50:16.651Z,41.36
2023-03-26T21:53:19.676Z,41.33
2023-03-26T21:56:28.125Z,41.41
2023-03-26T21:59:36.241Z,41.48
2023-03-26T22:02:43.842Z,41.38
2023-03-26T22:05:53.529Z,41.06
2023-03-26T22:08:56.512Z,41.43
2023-03-26T22:12:02.173Z,41.40
2023-03-26T22:15:07.691Z,41.38
2023-03-26T22:18:10.419Z,41.28
2023-03-26T22:21:14.220Z,41.16
2023-03-26T22:24:17.685Z,41.25
2023-03-26T22:27:23.114Z,41.24
2023-03-26T22:30:25.862Z,41.38
2023-03-26T22:33:31.564Z,41.49
2023-03-26T22:36:34.375Z,41.43
2023-03-26T22:39:37.939Z,40.97
2023-03-26T22:42:43.320Z,41.80
2023-03-26T22:45:49.983Z,41.48
2023-03-26T22:48:57.037Z,41.45
2023-03-26T22:51:59.843Z,41.59
2023-03-26T22:55:03.056Z,41.38
2023-03-26T22:58:08.131Z,41.37
2023-03-26T23:01:16.245Z,41.46
2023-03-26T23:04:31.413Z,41.48
2023-03-26T23:07:35.095Z,41.38
2023-03-26T23:10:38.343Z,41.15
2023-03-26T23:13:46.216Z,41.30
2023-03-26T23:16:53.703Z,41.33
2023-03-26T23:20:02.960Z,41.59
2023-03-26T23:23:07.662Z,41.62
2023-03-26T23:26:15.048Z,41.60
2023-03-26T23:29:19.478Z,41.44
2023-03-26T23:32:27.004Z,41.43
2023-03-26T23:35:29.784Z,41.74
2023-03-26T23:38:44.029Z,41.50
2023-03-26T23:41:47.275Z,41.17
2023-03-26T23:44:51.564Z,41.30
2023-03-26T23:48:00.413Z,41.24
2023-03-26T23:51:04.516Z,41.12
2023-03-26T23:54:08.747Z,41.22
2023-03-26T23:57:11.859Z,41.30
